createdAt,value
2017-03-01T00:07:47.439Z,0
2017-03-01T00:18:01.363Z,0
2017-03-01T00:28:15.094Z,0
2017-03-01T00:38:28.625Z,0
2017-03-01T00:48:43.086Z,0
2017-03-01T00:58:57.099Z,0
2017-03-01T01:09:11.734Z,0
2017-03-01T01:19:26.638Z,0
2017-03-01T01:29:40.225Z,0
2017-03-01T01:39:53.291Z,0
2017-03-01T01:50:07.409Z,0
2017-03-01T02:00:21.077Z,0
2017-03-01T02:10:34.744Z,0
2017-03-01T02:20:49.000Z,0
2017-03-01T02:31:02.583Z,0
2017-03-01T02:41:16.923Z,0
2017-03-01T02:51:31.573Z,0
2017-03-01T03:01:44.957Z,0
2017-03-01T03:11:59.790Z,0
2017-03-01T03:22:14.036Z,0
2017-03-01T03:32:28.324Z,0
2017-03-01T03:42:42.130Z,0
2017-03-01T03:52:56.775Z,0
2017-03-01T04:03:10.915Z,0
2017-03-01T04:13:25.657Z,0
2017-03-01T04:23:40.448Z,0
2017-03-01T04:33:54.470Z,0
2017-03-01T04:44:07.961Z,0
2017-03-01T04:54:21.458Z,0
2017-03-01T05:04:36.260Z,0
2017-03-01T05:14:50.285Z,0
2017-03-01T05:25:03.885Z,0
2017-03-01T05:35:18.945Z,0
2017-03-01T05:45:32.575Z,0
2017-03-01T05:55:45.833Z,4
2017-03-01T06:05:59.875Z,16
2017-03-01T06:16:13.083Z,104
2017-03-01T06:26:27.147Z,132
2017-03-01T06:36:40.605Z,332
2017-03-01T06:46:55.528Z,500
2017-03-01T06:57:09.095Z,668
2017-03-01T07:07:22.581Z,1652
2017-03-01T07:17:37.052Z,1560
2017-03-01T07:27:50.471Z,1828
2017-03-01T07:38:03.779Z,4348
2017-03-01T07:48:17.835Z,5348
2017-03-01T07:58:32.832Z,4452
2017-03-01T08:08:46.408Z,3832
2017-03-01T08:19:00.539Z,7136
2017-03-01T08:29:14.627Z,8360
2017-03-01T08:39:29.047Z,8548
2017-03-01T08:49:42.848Z,6076
2017-03-01T08:59:56.850Z,3760
2017-03-01T09:10:09.950Z,5440
2017-03-01T09:20:23.626Z,7432
2017-03-01T09:30:39.023Z,7248
2017-03-01T09:40:51.810Z,13316
2017-03-01T09:51:05.279Z,48096
2017-03-01T10:01:19.196Z,38880
2017-03-01T10:11:32.807Z,26688
2017-03-01T10:21:47.243Z,30816
2017-03-01T10:32:01.003Z,23584
2017-03-01T10:42:15.643Z,7572
2017-03-01T10:52:28.928Z,6940
2017-03-01T11:02:42.819Z,5748
2017-03-01T11:12:56.184Z,8984
2017-03-01T11:23:09.431Z,9188
2017-03-01T11:33:22.935Z,10116
2017-03-01T11:43:36.315Z,19136
2017-03-01T11:53:50.769Z,25440
2017-03-01T12:04:05.350Z,17536
2017-03-01T12:14:20.077Z,18208
2017-03-01T12:24:33.659Z,43936
2017-03-01T12:34:48.522Z,20576
2017-03-01T12:45:03.437Z,49568
2017-03-01T12:55:18.002Z,14048
2017-03-01T13:05:32.407Z,19744
2017-03-01T13:15:47.469Z,12764
2017-03-01T13:26:00.955Z,22784
2017-03-01T13:36:16.028Z,20032
2017-03-01T13:46:30.593Z,43360
2017-03-01T13:56:45.741Z,16568
2017-03-01T14:06:59.485Z,35264
2017-03-01T14:17:14.259Z,37632
2017-03-01T14:27:27.020Z,31872
2017-03-01T14:37:41.240Z,13312
2017-03-01T14:47:55.690Z,9812
2017-03-01T14:58:09.263Z,13580
2017-03-01T15:08:23.403Z,16768
2017-03-01T15:18:38.489Z,11920
2017-03-01T15:28:51.811Z,9228
2017-03-01T15:39:06.766Z,6056
2017-03-01T15:49:21.105Z,5876
2017-03-01T15:59:34.684Z,6168
2017-03-01T16:09:49.532Z,4608
2017-03-01T16:20:02.710Z,3256
2017-03-01T16:30:16.696Z,3064
2017-03-01T16:40:31.059Z,1312
2017-03-01T16:50:43.769Z,708
2017-03-01T17:00:57.418Z,108
2017-03-01T17:11:11.070Z,48
2017-03-01T17:21:24.409Z,72
2017-03-01T17:31:39.396Z,12
2017-03-01T17:41:53.796Z,0
2017-03-01T17:52:07.907Z,0
2017-03-01T18:02:21.932Z,0
2017-03-01T18:12:36.315Z,0
2017-03-01T18:22:49.765Z,0
2017-03-01T18:33:04.273Z,0
2017-03-01T18:43:18.458Z,0
2017-03-01T18:53:32.922Z,0
2017-03-01T19:03:46.457Z,0
2017-03-01T19:13:59.590Z,0
2017-03-01T19:24:14.527Z,0
2017-03-01T19:34:29.482Z,0
2017-03-01T19:44:42.530Z,0
2017-03-01T19:54:56.537Z,0
2017-03-01T20:05:09.447Z,0
2017-03-01T20:15:24.382Z,0
2017-03-01T20:25:39.139Z,0
2017-03-01T20:35:52.759Z,0
2017-03-01T20:46:06.712Z,0
2017-03-01T20:56:20.531Z,0
2017-03-01T21:06:34.132Z,0
2017-03-01T21:16:48.428Z,0
2017-03-01T21:27:02.380Z,0
2017-03-01T21:37:17.212Z,0
2017-03-01T21:47:31.433Z,0
2017-03-01T21:57:45.043Z,0
2017-03-01T22:07:59.874Z,0
2017-03-01T22:18:15.580Z,0
2017-03-01T22:28:28.323Z,0
2017-03-01T22:38:42.146Z,0
2017-03-01T22:48:56.197Z,0
2017-03-01T22:59:09.696Z,0
2017-03-01T23:09:23.518Z,0
2017-03-01T23:19:36.744Z,0
2017-03-01T23:29:50.195Z,0
2017-03-01T23:40:05.162Z,0
2017-03-01T23:50:19.350Z,0
